sensor_id;sensor_type;location;lat;lon;timestamp;P1;durP1;ratioP1;P2;durP2;ratioP2
19113;SDS011;9689;51.052;13.772;2022-08-25T00:01:26;22.25;;;14.88;;
19113;SDS011;9689;51.052;13.772;2022-08-25T00:06:30;27.50;;;14.75;;
19113;SDS011;9689;51.052;13.772;2022-08-25T00:11:32;22.88;;;14.85;;
19113;SDS011;9689;51.052;13.772;2022-08-25T00:16:36;24.30;;;15.10;;
19113;SDS011;9689;51.052;13.772;2022-08-25T00:21:37;23.92;;;15.18;;
19113;SDS011;9689;51.052;13.772;2022-08-25T00:26:39;22.75;;;15.20;;
19113;SDS011;9689;51.052;13.772;2022-08-25T00:31:43;23.17;;;15.10;;
19113;SDS011;9689;51.052;13.772;2022-08-25T00:36:44;26.70;;;16.23;;
19113;SDS011;9689;51.052;13.772;2022-08-25T00:41:46;21.10;;;15.13;;
19113;SDS011;9689;51.052;13.772;2022-08-25T00:46:49;26.27;;;15.93;;
19113;SDS011;9689;51.052;13.772;2022-08-25T00:51:54;26.55;;;15.65;;
19113;SDS011;9689;51.052;13.772;2022-08-25T00:57:00;26.40;;;15.70;;
19113;SDS011;9689;51.052;13.772;2022-08-25T01:02:04;23.58;;;14.75;;
19113;SDS011;9689;51.052;13.772;2022-08-25T01:07:12;28.45;;;14.75;;
19113;SDS011;9689;51.052;13.772;2022-08-25T01:12:16;24.08;;;15.25;;
19113;SDS011;9689;51.052;13.772;2022-08-25T01:17:19;22.70;;;15.75;;
19113;SDS011;9689;51.052;13.772;2022-08-25T01:22:21;29.80;;;15.73;;
19113;SDS011;9689;51.052;13.772;2022-08-25T01:27:25;48.17;;;16.05;;
19113;SDS011;9689;51.052;13.772;2022-08-25T01:32:25;20.92;;;14.82;;
19113;SDS011;9689;51.052;13.772;2022-08-25T01:37:27;26.17;;;15.10;;
19113;SDS011;9689;51.052;13.772;2022-08-25T01:42:32;19.58;;;13.52;;
19113;SDS011;9689;51.052;13.772;2022-08-25T01:47:41;23.75;;;13.85;;
19113;SDS011;9689;51.052;13.772;2022-08-25T01:52:50;19.67;;;14.27;;
19113;SDS011;9689;51.052;13.772;2022-08-25T01:57:54;26.25;;;14.57;;
19113;SDS011;9689;51.052;13.772;2022-08-25T02:02:55;25.95;;;14.75;;
19113;SDS011;9689;51.052;13.772;2022-08-25T02:07:57;26.15;;;15.50;;
19113;SDS011;9689;51.052;13.772;2022-08-25T02:12:58;23.48;;;14.75;;
19113;SDS011;9689;51.052;13.772;2022-08-25T02:17:59;22.80;;;15.40;;
19113;SDS011;9689;51.052;13.772;2022-08-25T02:23:01;27.35;;;14.13;;
19113;SDS011;9689;51.052;13.772;2022-08-25T02:28:03;25.02;;;14.93;;
19113;SDS011;9689;51.052;13.772;2022-08-25T02:33:05;25.95;;;14.98;;
19113;SDS011;9689;51.052;13.772;2022-08-25T02:38:07;21.35;;;14.07;;
19113;SDS011;9689;51.052;13.772;2022-08-25T02:43:07;34.28;;;15.25;;
19113;SDS011;9689;51.052;13.772;2022-08-25T02:48:08;30.80;;;14.73;;
19113;SDS011;9689;51.052;13.772;2022-08-25T02:53:10;26.05;;;15.55;;
19113;SDS011;9689;51.052;13.772;2022-08-25T02:58:11;20.38;;;13.75;;
19113;SDS011;9689;51.052;13.772;2022-08-25T03:03:12;18.98;;;13.90;;
19113;SDS011;9689;51.052;13.772;2022-08-25T03:08:15;27.73;;;15.18;;
19113;SDS011;9689;51.052;13.772;2022-08-25T03:13:16;27.88;;;14.98;;
19113;SDS011;9689;51.052;13.772;2022-08-25T03:18:17;22.45;;;14.77;;
19113;SDS011;9689;51.052;13.772;2022-08-25T03:23:19;25.50;;;15.60;;
19113;SDS011;9689;51.052;13.772;2022-08-25T03:28:20;23.95;;;14.00;;
19113;SDS011;9689;51.052;13.772;2022-08-25T03:33:28;22.38;;;14.13;;
19113;SDS011;9689;51.052;13.772;2022-08-25T03:38:31;24.17;;;15.50;;
19113;SDS011;9689;51.052;13.772;2022-08-25T03:43:32;20.55;;;14.10;;
19113;SDS011;9689;51.052;13.772;2022-08-25T03:48:33;26.20;;;14.60;;
19113;SDS011;9689;51.052;13.772;2022-08-25T03:53:35;29.55;;;15.15;;
19113;SDS011;9689;51.052;13.772;2022-08-25T03:58:36;26.63;;;14.88;;
19113;SDS011;9689;51.052;13.772;2022-08-25T04:03:36;26.05;;;14.18;;
19113;SDS011;9689;51.052;13.772;2022-08-25T04:08:38;22.48;;;14.82;;
19113;SDS011;9689;51.052;13.772;2022-08-25T04:13:39;24.05;;;13.65;;
19113;SDS011;9689;51.052;13.772;2022-08-25T04:18:41;23.42;;;14.95;;
19113;SDS011;9689;51.052;13.772;2022-08-25T04:23:44;28.58;;;15.05;;
19113;SDS011;9689;51.052;13.772;2022-08-25T04:28:46;27.48;;;15.63;;
19113;SDS011;9689;51.052;13.772;2022-08-25T04:33:47;27.10;;;15.18;;
19113;SDS011;9689;51.052;13.772;2022-08-25T04:38:49;20.98;;;15.32;;
19113;SDS011;9689;51.052;13.772;2022-08-25T04:43:51;22.45;;;14.27;;
19113;SDS011;9689;51.052;13.772;2022-08-25T04:48:53;24.05;;;14.63;;
19113;SDS011;9689;51.052;13.772;2022-08-25T04:53:58;22.70;;;14.80;;
19113;SDS011;9689;51.052;13.772;2022-08-25T04:59:00;20.67;;;14.68;;
19113;SDS011;9689;51.052;13.772;2022-08-25T05:04:02;25.95;;;14.57;;
19113;SDS011;9689;51.052;13.772;2022-08-25T05:09:06;23.00;;;15.30;;
19113;SDS011;9689;51.052;13.772;2022-08-25T05:14:08;26.05;;;14.52;;
19113;SDS011;9689;51.052;13.772;2022-08-25T05:19:11;28.85;;;14.52;;
19113;SDS011;9689;51.052;13.772;2022-08-25T05:24:13;21.00;;;14.25;;
19113;SDS011;9689;51.052;13.772;2022-08-25T05:29:15;22.05;;;14.40;;
19113;SDS011;9689;51.052;13.772;2022-08-25T05:34:16;22.15;;;13.65;;
19113;SDS011;9689;51.052;13.772;2022-08-25T05:39:18;21.80;;;14.35;;
19113;SDS011;9689;51.052;13.772;2022-08-25T05:44:20;27.23;;;14.48;;
19113;SDS011;9689;51.052;13.772;2022-08-25T05:49:21;21.65;;;13.70;;
19113;SDS011;9689;51.052;13.772;2022-08-25T05:54:23;19.80;;;13.98;;
19113;SDS011;9689;51.052;13.772;2022-08-25T05:59:23;17.73;;;13.02;;
19113;SDS011;9689;51.052;13.772;2022-08-25T06:04:24;19.27;;;13.75;;
19113;SDS011;9689;51.052;13.772;2022-08-25T06:09:26;21.58;;;15.13;;
19113;SDS011;9689;51.052;13.772;2022-08-25T06:14:27;25.70;;;14.07;;
19113;SDS011;9689;51.052;13.772;2022-08-25T06:19:28;24.00;;;13.88;;
19113;SDS011;9689;51.052;13.772;2022-08-25T06:24:30;22.30;;;13.32;;
19113;SDS011;9689;51.052;13.772;2022-08-25T06:29:32;23.38;;;14.00;;
19113;SDS011;9689;51.052;13.772;2022-08-25T06:34:32;23.05;;;13.27;;
19113;SDS011;9689;51.052;13.772;2022-08-25T06:39:35;28.05;;;13.48;;
19113;SDS011;9689;51.052;13.772;2022-08-25T06:44:35;19.02;;;11.93;;
19113;SDS011;9689;51.052;13.772;2022-08-25T06:49:36;28.15;;;14.27;;
19113;SDS011;9689;51.052;13.772;2022-08-25T06:54:39;23.92;;;12.93;;
19113;SDS011;9689;51.052;13.772;2022-08-25T06:59:40;22.27;;;13.57;;
19113;SDS011;9689;51.052;13.772;2022-08-25T07:04:41;20.25;;;13.32;;
19113;SDS011;9689;51.052;13.772;2022-08-25T07:09:43;20.23;;;13.02;;
19113;SDS011;9689;51.052;13.772;2022-08-25T07:14:44;25.88;;;14.15;;
19113;SDS011;9689;51.052;13.772;2022-08-25T07:20:02;20.60;;;12.68;;
19113;SDS011;9689;51.052;13.772;2022-08-25T07:25:05;26.73;;;15.90;;
19113;SDS011;9689;51.052;13.772;2022-08-25T07:30:07;21.00;;;13.55;;
19113;SDS011;9689;51.052;13.772;2022-08-25T07:35:09;23.30;;;14.98;;
19113;SDS011;9689;51.052;13.772;2022-08-25T07:40:24;20.35;;;14.63;;
19113;SDS011;9689;51.052;13.772;2022-08-25T07:45:28;23.92;;;15.60;;
19113;SDS011;9689;51.052;13.772;2022-08-25T07:50:29;22.23;;;13.00;;
19113;SDS011;9689;51.052;13.772;2022-08-25T07:55:32;24.80;;;13.48;;
19113;SDS011;9689;51.052;13.772;2022-08-25T08:00:35;23.70;;;14.73;;
19113;SDS011;9689;51.052;13.772;2022-08-25T08:05:40;20.50;;;12.27;;
19113;SDS011;9689;51.052;13.772;2022-08-25T08:10:42;22.95;;;12.98;;
19113;SDS011;9689;51.052;13.772;2022-08-25T08:16:06;20.58;;;12.65;;
19113;SDS011;9689;51.052;13.772;2022-08-25T08:21:10;17.90;;;11.90;;
19113;SDS011;9689;51.052;13.772;2022-08-25T08:26:18;22.85;;;12.52;;
19113;SDS011;9689;51.052;13.772;2022-08-25T08:31:34;26.17;;;13.15;;
19113;SDS011;9689;51.052;13.772;2022-08-25T08:36:35;22.23;;;11.20;;
19113;SDS011;9689;51.052;13.772;2022-08-25T08:41:47;14.65;;;10.75;;
19113;SDS011;9689;51.052;13.772;2022-08-25T08:47:17;15.70;;;11.57;;
19113;SDS011;9689;51.052;13.772;2022-08-25T08:52:28;16.10;;;10.68;;
19113;SDS011;9689;51.052;13.772;2022-08-25T08:57:40;20.15;;;9.95;;
19113;SDS011;9689;51.052;13.772;2022-08-25T09:02:52;20.42;;;11.32;;
19113;SDS011;9689;51.052;13.772;2022-08-25T09:07:57;16.17;;;10.45;;
19113;SDS011;9689;51.052;13.772;2022-08-25T09:13:10;14.60;;;11.07;;
19113;SDS011;9689;51.052;13.772;2022-08-25T09:18:19;18.35;;;10.85;;
19113;SDS011;9689;51.052;13.772;2022-08-25T09:23:30;18.75;;;11.50;;
19113;SDS011;9689;51.052;13.772;2022-08-25T09:28:40;18.73;;;9.88;;
19113;SDS011;9689;51.052;13.772;2022-08-25T09:33:49;16.98;;;10.70;;
19113;SDS011;9689;51.052;13.772;2022-08-25T09:38:54;13.10;;;8.63;;
19113;SDS011;9689;51.052;13.772;2022-08-25T09:43:56;18.08;;;8.43;;
19113;SDS011;9689;51.052;13.772;2022-08-25T09:48:57;16.75;;;8.35;;
19113;SDS011;9689;51.052;13.772;2022-08-25T09:54:15;19.15;;;8.02;;
19113;SDS011;9689;51.052;13.772;2022-08-25T09:59:20;19.30;;;7.95;;
19113;SDS011;9689;51.052;13.772;2022-08-25T10:04:33;25.45;;;7.20;;
19113;SDS011;9689;51.052;13.772;2022-08-25T10:09:39;24.52;;;5.93;;
19113;SDS011;9689;51.052;13.772;2022-08-25T10:14:45;24.20;;;6.40;;
19113;SDS011;9689;51.052;13.772;2022-08-25T10:19:49;24.33;;;6.10;;
19113;SDS011;9689;51.052;13.772;2022-08-25T10:24:51;23.40;;;6.03;;
19113;SDS011;9689;51.052;13.772;2022-08-25T10:29:58;18.95;;;6.03;;
19113;SDS011;9689;51.052;13.772;2022-08-25T10:35:07;23.17;;;6.97;;
19113;SDS011;9689;51.052;13.772;2022-08-25T10:40:14;28.20;;;6.55;;
19113;SDS011;9689;51.052;13.772;2022-08-25T10:45:22;26.77;;;6.65;;
19113;SDS011;9689;51.052;13.772;2022-08-25T10:50:44;23.73;;;6.53;;
19113;SDS011;9689;51.052;13.772;2022-08-25T10:55:58;19.75;;;5.88;;
19113;SDS011;9689;51.052;13.772;2022-08-25T11:01:09;28.13;;;6.25;;
19113;SDS011;9689;51.052;13.772;2022-08-25T11:06:27;27.10;;;6.28;;
19113;SDS011;9689;51.052;13.772;2022-08-25T11:11:36;29.05;;;6.80;;
19113;SDS011;9689;51.052;13.772;2022-08-25T11:16:50;29.38;;;7.40;;
19113;SDS011;9689;51.052;13.772;2022-08-25T11:21:55;24.50;;;7.15;;
19113;SDS011;9689;51.052;13.772;2022-08-25T11:27:04;21.95;;;6.07;;
19113;SDS011;9689;51.052;13.772;2022-08-25T11:32:21;23.17;;;6.20;;
19113;SDS011;9689;51.052;13.772;2022-08-25T11:37:24;23.98;;;6.05;;
19113;SDS011;9689;51.052;13.772;2022-08-25T11:42:29;29.35;;;5.82;;
19113;SDS011;9689;51.052;13.772;2022-08-25T11:47:49;21.95;;;6.82;;
19113;SDS011;9689;51.052;13.772;2022-08-25T11:53:15;19.33;;;5.55;;
19113;SDS011;9689;51.052;13.772;2022-08-25T11:58:37;32.88;;;6.53;;
19113;SDS011;9689;51.052;13.772;2022-08-25T12:09:17;22.42;;;6.15;;
19113;SDS011;9689;51.052;13.772;2022-08-25T12:14:35;20.10;;;5.03;;
19113;SDS011;9689;51.052;13.772;2022-08-25T12:19:49;25.35;;;5.93;;
19113;SDS011;9689;51.052;13.772;2022-08-25T12:24:53;34.58;;;5.88;;
19113;SDS011;9689;51.052;13.772;2022-08-25T12:30:04;25.13;;;6.68;;
19113;SDS011;9689;51.052;13.772;2022-08-25T12:35:23;27.55;;;6.00;;
19113;SDS011;9689;51.052;13.772;2022-08-25T12:40:29;22.95;;;7.35;;
19113;SDS011;9689;51.052;13.772;2022-08-25T12:45:38;22.73;;;5.90;;
19113;SDS011;9689;51.052;13.772;2022-08-25T12:50:45;22.50;;;6.25;;
19113;SDS011;9689;51.052;13.772;2022-08-25T12:55:49;18.52;;;6.07;;
19113;SDS011;9689;51.052;13.772;2022-08-25T13:01:04;20.27;;;7.15;;
19113;SDS011;9689;51.052;13.772;2022-08-25T13:12:04;24.27;;;5.82;;
19113;SDS011;9689;51.052;13.772;2022-08-25T13:17:15;20.35;;;6.05;;
19113;SDS011;9689;51.052;13.772;2022-08-25T13:22:28;26.45;;;6.13;;
19113;SDS011;9689;51.052;13.772;2022-08-25T13:27:30;24.88;;;5.05;;
19113;SDS011;9689;51.052;13.772;2022-08-25T13:32:35;26.92;;;5.53;;
19113;SDS011;9689;51.052;13.772;2022-08-25T13:37:39;22.50;;;5.10;;
19113;SDS011;9689;51.052;13.772;2022-08-25T13:42:41;24.02;;;7.03;;
19113;SDS011;9689;51.052;13.772;2022-08-25T13:47:52;20.20;;;6.50;;
19113;SDS011;9689;51.052;13.772;2022-08-25T13:52:56;24.52;;;6.18;;
19113;SDS011;9689;51.052;13.772;2022-08-25T13:58:00;19.75;;;5.00;;
19113;SDS011;9689;51.052;13.772;2022-08-25T14:03:02;24.33;;;6.07;;
19113;SDS011;9689;51.052;13.772;2022-08-25T14:08:28;17.23;;;5.65;;
19113;SDS011;9689;51.052;13.772;2022-08-25T14:13:31;18.90;;;5.45;;
19113;SDS011;9689;51.052;13.772;2022-08-25T14:18:33;27.00;;;6.07;;
19113;SDS011;9689;51.052;13.772;2022-08-25T14:23:37;25.60;;;6.05;;
19113;SDS011;9689;51.052;13.772;2022-08-25T14:28:38;22.40;;;5.32;;
19113;SDS011;9689;51.052;13.772;2022-08-25T14:33:40;30.23;;;6.20;;
19113;SDS011;9689;51.052;13.772;2022-08-25T14:38:49;35.50;;;6.65;;
19113;SDS011;9689;51.052;13.772;2022-08-25T14:43:53;19.90;;;6.32;;
19113;SDS011;9689;51.052;13.772;2022-08-25T14:48:55;31.58;;;5.68;;
19113;SDS011;9689;51.052;13.772;2022-08-25T14:54:00;26.08;;;5.65;;
19113;SDS011;9689;51.052;13.772;2022-08-25T14:59:03;21.08;;;5.57;;
19113;SDS011;9689;51.052;13.772;2022-08-25T15:04:07;29.02;;;6.03;;
19113;SDS011;9689;51.052;13.772;2022-08-25T15:09:15;25.55;;;6.18;;
19113;SDS011;9689;51.052;13.772;2022-08-25T15:14:17;22.58;;;5.90;;
19113;SDS011;9689;51.052;13.772;2022-08-25T15:19:31;22.60;;;6.43;;
19113;SDS011;9689;51.052;13.772;2022-08-25T15:24:35;21.38;;;5.70;;
19113;SDS011;9689;51.052;13.772;2022-08-25T15:29:37;24.88;;;6.00;;
19113;SDS011;9689;51.052;13.772;2022-08-25T15:34:39;28.25;;;7.85;;
19113;SDS011;9689;51.052;13.772;2022-08-25T15:39:43;31.13;;;6.72;;
19113;SDS011;9689;51.052;13.772;2022-08-25T15:44:45;25.77;;;6.57;;
19113;SDS011;9689;51.052;13.772;2022-08-25T15:49:52;24.70;;;6.40;;
19113;SDS011;9689;51.052;13.772;2022-08-25T15:55:03;31.95;;;6.97;;
19113;SDS011;9689;51.052;13.772;2022-08-25T16:00:06;30.02;;;7.13;;
19113;SDS011;9689;51.052;13.772;2022-08-25T16:05:09;31.02;;;6.45;;
19113;SDS011;9689;51.052;13.772;2022-08-25T16:10:13;22.85;;;6.22;;
19113;SDS011;9689;51.052;13.772;2022-08-25T16:15:14;21.27;;;6.55;;
19113;SDS011;9689;51.052;13.772;2022-08-25T16:20:15;23.13;;;6.70;;
19113;SDS011;9689;51.052;13.772;2022-08-25T16:25:18;30.98;;;6.95;;
19113;SDS011;9689;51.052;13.772;2022-08-25T16:30:19;24.58;;;6.97;;
19113;SDS011;9689;51.052;13.772;2022-08-25T16:35:20;22.42;;;7.43;;
19113;SDS011;9689;51.052;13.772;2022-08-25T16:40:23;22.90;;;6.38;;
19113;SDS011;9689;51.052;13.772;2022-08-25T16:45:24;21.20;;;6.70;;
19113;SDS011;9689;51.052;13.772;2022-08-25T16:50:25;20.08;;;6.35;;
19113;SDS011;9689;51.052;13.772;2022-08-25T16:55:29;25.85;;;7.68;;
19113;SDS011;9689;51.052;13.772;2022-08-25T17:00:38;28.50;;;7.07;;
19113;SDS011;9689;51.052;13.772;2022-08-25T17:05:42;39.45;;;7.43;;
19113;SDS011;9689;51.052;13.772;2022-08-25T17:10:45;28.17;;;7.63;;
19113;SDS011;9689;51.052;13.772;2022-08-25T17:15:46;33.08;;;7.43;;
19113;SDS011;9689;51.052;13.772;2022-08-25T17:20:56;34.40;;;7.80;;
19113;SDS011;9689;51.052;13.772;2022-08-25T17:26:00;41.75;;;8.10;;
19113;SDS011;9689;51.052;13.772;2022-08-25T17:31:03;32.30;;;8.00;;
19113;SDS011;9689;51.052;13.772;2022-08-25T17:36:04;24.50;;;7.47;;
19113;SDS011;9689;51.052;13.772;2022-08-25T17:41:07;30.67;;;8.00;;
19113;SDS011;9689;51.052;13.772;2022-08-25T17:46:09;24.83;;;7.55;;
19113;SDS011;9689;51.052;13.772;2022-08-25T17:51:11;30.00;;;8.90;;
19113;SDS011;9689;51.052;13.772;2022-08-25T17:56:17;18.05;;;7.93;;
19113;SDS011;9689;51.052;13.772;2022-08-25T18:01:21;34.90;;;8.65;;
19113;SDS011;9689;51.052;13.772;2022-08-25T18:06:25;23.88;;;8.02;;
19113;SDS011;9689;51.052;13.772;2022-08-25T18:11:29;29.42;;;8.88;;
19113;SDS011;9689;51.052;13.772;2022-08-25T18:16:31;33.22;;;9.82;;
19113;SDS011;9689;51.052;13.772;2022-08-25T18:21:32;29.98;;;8.95;;
19113;SDS011;9689;51.052;13.772;2022-08-25T18:26:35;31.30;;;10.95;;
19113;SDS011;9689;51.052;13.772;2022-08-25T18:31:36;21.27;;;9.30;;
19113;SDS011;9689;51.052;13.772;2022-08-25T18:36:39;20.40;;;9.02;;
19113;SDS011;9689;51.052;13.772;2022-08-25T18:41:43;30.83;;;9.75;;
19113;SDS011;9689;51.052;13.772;2022-08-25T18:46:44;36.38;;;9.52;;
19113;SDS011;9689;51.052;13.772;2022-08-25T18:51:46;30.52;;;9.80;;
19113;SDS011;9689;51.052;13.772;2022-08-25T18:56:49;18.70;;;10.00;;
19113;SDS011;9689;51.052;13.772;2022-08-25T19:01:50;25.23;;;10.98;;
19113;SDS011;9689;51.052;13.772;2022-08-25T19:06:53;29.42;;;9.82;;
19113;SDS011;9689;51.052;13.772;2022-08-25T19:11:55;25.60;;;9.10;;
19113;SDS011;9689;51.052;13.772;2022-08-25T19:16:56;22.40;;;10.45;;
19113;SDS011;9689;51.052;13.772;2022-08-25T19:21:59;27.42;;;10.45;;
19113;SDS011;9689;51.052;13.772;2022-08-25T19:27:03;30.60;;;11.07;;
19113;SDS011;9689;51.052;13.772;2022-08-25T19:32:11;33.00;;;10.35;;
19113;SDS011;9689;51.052;13.772;2022-08-25T19:37:13;26.95;;;10.30;;
19113;SDS011;9689;51.052;13.772;2022-08-25T19:42:16;32.55;;;11.05;;
19113;SDS011;9689;51.052;13.772;2022-08-25T19:47:36;37.15;;;10.95;;
19113;SDS011;9689;51.052;13.772;2022-08-25T19:52:38;27.52;;;11.10;;
19113;SDS011;9689;51.052;13.772;2022-08-25T19:57:42;24.45;;;10.68;;
19113;SDS011;9689;51.052;13.772;2022-08-25T20:02:44;29.38;;;11.23;;
19113;SDS011;9689;51.052;13.772;2022-08-25T20:07:46;24.85;;;11.63;;
19113;SDS011;9689;51.052;13.772;2022-08-25T20:12:50;43.20;;;12.57;;
19113;SDS011;9689;51.052;13.772;2022-08-25T20:17:51;24.90;;;11.55;;
19113;SDS011;9689;51.052;13.772;2022-08-25T20:22:55;29.35;;;10.98;;
19113;SDS011;9689;51.052;13.772;2022-08-25T20:28:18;29.65;;;12.13;;
19113;SDS011;9689;51.052;13.772;2022-08-25T20:33:18;32.00;;;11.70;;
19113;SDS011;9689;51.052;13.772;2022-08-25T20:38:21;25.27;;;10.73;;
19113;SDS011;9689;51.052;13.772;2022-08-25T20:43:23;30.48;;;12.95;;
19113;SDS011;9689;51.052;13.772;2022-08-25T20:48:25;34.85;;;12.27;;
19113;SDS011;9689;51.052;13.772;2022-08-25T20:53:26;31.20;;;12.18;;
19113;SDS011;9689;51.052;13.772;2022-08-25T20:58:29;34.70;;;12.60;;
19113;SDS011;9689;51.052;13.772;2022-08-25T21:03:30;31.52;;;12.55;;
19113;SDS011;9689;51.052;13.772;2022-08-25T21:08:31;30.77;;;12.45;;
19113;SDS011;9689;51.052;13.772;2022-08-25T21:13:34;25.70;;;11.23;;
19113;SDS011;9689;51.052;13.772;2022-08-25T21:18:36;33.58;;;12.10;;
19113;SDS011;9689;51.052;13.772;2022-08-25T21:23:44;27.67;;;12.77;;
19113;SDS011;9689;51.052;13.772;2022-08-25T21:28:48;30.88;;;12.25;;
19113;SDS011;9689;51.052;13.772;2022-08-25T21:33:50;30.67;;;12.75;;
19113;SDS011;9689;51.052;13.772;2022-08-25T21:38:52;33.40;;;13.57;;
19113;SDS011;9689;51.052;13.772;2022-08-25T21:43:54;34.80;;;12.75;;
19113;SDS011;9689;51.052;13.772;2022-08-25T21:48:56;33.72;;;12.73;;
19113;SDS011;9689;51.052;13.772;2022-08-25T21:53:59;32.63;;;12.98;;
19113;SDS011;9689;51.052;13.772;2022-08-25T21:59:12;36.55;;;13.18;;
19113;SDS011;9689;51.052;13.772;2022-08-25T22:04:15;30.50;;;13.30;;
19113;SDS011;9689;51.052;13.772;2022-08-25T22:09:16;27.20;;;12.98;;
19113;SDS011;9689;51.052;13.772;2022-08-25T22:14:19;33.80;;;14.25;;
19113;SDS011;9689;51.052;13.772;2022-08-25T22:19:22;35.65;;;13.85;;
19113;SDS011;9689;51.052;13.772;2022-08-25T22:24:23;25.60;;;13.35;;
19113;SDS011;9689;51.052;13.772;2022-08-25T22:29:28;27.85;;;12.38;;
19113;SDS011;9689;51.052;13.772;2022-08-25T22:34:29;32.63;;;13.88;;
19113;SDS011;9689;51.052;13.772;2022-08-25T22:39:31;27.00;;;14.10;;
19113;SDS011;9689;51.052;13.772;2022-08-25T22:44:34;33.38;;;14.07;;
19113;SDS011;9689;51.052;13.772;2022-08-25T22:49:38;34.03;;;14.60;;
19113;SDS011;9689;51.052;13.772;2022-08-25T22:54:39;36.67;;;14.25;;
19113;SDS011;9689;51.052;13.772;2022-08-25T22:59:42;36.10;;;16.02;;
19113;SDS011;9689;51.052;13.772;2022-08-25T23:04:43;35.30;;;15.52;;
19113;SDS011;9689;51.052;13.772;2022-08-25T23:09:43;32.35;;;15.45;;
19113;SDS011;9689;51.052;13.772;2022-08-25T23:14:46;31.02;;;14.25;;
19113;SDS011;9689;51.052;13.772;2022-08-25T23:19:48;39.95;;;14.68;;
19113;SDS011;9689;51.052;13.772;2022-08-25T23:24:49;28.88;;;15.45;;
19113;SDS011;9689;51.052;13.772;2022-08-25T23:29:52;42.38;;;14.95;;
19113;SDS011;9689;51.052;13.772;2022-08-25T23:34:53;32.22;;;16.13;;
19113;SDS011;9689;51.052;13.772;2022-08-25T23:39:53;34.30;;;15.23;;
19113;SDS011;9689;51.052;13.772;2022-08-25T23:44:55;41.72;;;16.90;;
19113;SDS011;9689;51.052;13.772;2022-08-25T23:49:57;41.80;;;16.52;;
19113;SDS011;9689;51.052;13.772;2022-08-25T23:54:58;29.20;;;15.90;;
